Tropical Cyclones
[Index]
Main Index Home Page Stock Weather Photos Extreme Storms Discussion Storm News and Storm Chasing Reports Tropical Cyclones / Hurricanes / Typhoons Weather Data and Links Wild Fires / Bushfires Weather Observation Techniques Weather Picture Catalogue Tornado Pictures and Reports Stock Video Footage and DVDs for sale
Season 2000-2001 Tropical Cyclone PAULA Track Map
Season 2000-2001 Summaries: [BoM-AU] [JTWC-AU] [JTWC-SIO] [JTWC-SPAC] [JTWC-SH]
<<- Previous TC | JTWC 2000-2001 Season | Next TC ->>

click for intensity scale information  Lat/long Grid: Show Hide

 Date Labels: Show Hide

Joint Typhoon Warning Centre Cyclone Data

Name: PAULA

25 Feb 2001 06:00 UTC to 04 Mar 2001 18:00 UTC

    date/time    lat    long     hPa   cat  kts
2001-02-25 06   10.5   162.8                  20          
2001-02-25 12   10.7   163.1                  20          
2001-02-25 18   11.1   163.5                  25          
2001-02-26 00   11.6   163.9                  30          
2001-02-26 06   12.1   164.2                  30          
2001-02-26 12   12.5   164.4                  35          
2001-02-26 18   13.0   164.5            1     45          
2001-02-27 00   13.4   164.7            1     50          
2001-02-27 06   13.8   164.9            2     55          
2001-02-27 12   14.4   165.4            2     65          
2001-02-27 18   15.3   166.1            2     70          
2001-02-28 00   16.1   166.8            3     75          
2001-02-28 06   16.7   167.9            3     85          
2001-02-28 12   17.4   169.0            3     85          
2001-02-28 18   18.1   170.3            3     90          
2001-03-01 00   18.7   171.8            3     90          
2001-03-01 06   19.3   173.5            3     95          
2001-03-01 12   19.8   175.4            3     95          
2001-03-01 18   20.5   177.3            4    100          
2001-03-02 00   21.2   179.1            4    100          
2001-03-02 06   22.0   179.1W           4    105          
2001-03-02 12   22.9   177.8W           4    105          
2001-03-02 18   23.8   176.6W           4    100          
2001-03-03 00   24.7   175.5W           3     80          
2001-03-03 06   25.3   174.7W           3     75          
2001-03-03 12   25.9   174.0W           2     65          
2001-03-03 18   26.7   173.2W           2     55          
2001-03-04 00   27.8   172.2W           2     55          
2001-03-04 06   28.7   171.4W           1     45          
2001-03-04 12   29.8   170.4W           1     45          
2001-03-04 18   31.0   169.2W                 35          
Winds are 1-min average.

Tropical cyclone tracks developed by Michael Bath using data from the Joint Typhoon Warning Centre Best Tracks and Google Maps.


[Australian Severe Weather index] [Copyright Notice] [Email Contacts] [Search This Site] [Privacy Policy]
Document: tropical_cyclone_paula.htm Updated: 28 June 2017